createdAt,value
2022-12-11T00:01:01.295Z,21.33
2022-12-11T00:03:29.696Z,19.77
2022-12-11T00:05:57.803Z,19.45
2022-12-11T00:08:27.343Z,18.70
2022-12-11T00:10:55.533Z,20.02
2022-12-11T00:13:23.554Z,21.00
2022-12-11T00:15:51.623Z,16.95
2022-12-11T00:18:19.707Z,18.05
2022-12-11T00:20:47.825Z,21.63
2022-12-11T00:23:15.880Z,18.05
2022-12-11T00:25:46.249Z,17.05
2022-12-11T00:28:16.665Z,20.75
2022-12-11T00:30:44.722Z,18.48
2022-12-11T00:33:13.848Z,17.40
2022-12-11T00:35:43.348Z,18.08
2022-12-11T00:38:16.508Z,16.30
2022-12-11T00:40:46.112Z,16.98
2022-12-11T00:43:14.478Z,17.80
2022-12-11T00:45:43.879Z,18.83
2022-12-11T00:48:12.304Z,16.45
2022-12-11T00:50:41.068Z,15.82
2022-12-11T00:53:09.415Z,18.13
2022-12-11T00:55:39.522Z,14.30
2022-12-11T00:58:09.794Z,15.18
2022-12-11T01:00:38.327Z,17.27
2022-12-11T01:03:07.156Z,17.75
2022-12-11T01:05:37.624Z,19.55
2022-12-11T01:08:05.983Z,17.83
2022-12-11T01:10:34.555Z,17.35
2022-12-11T01:13:05.025Z,19.98
2022-12-11T01:15:41.182Z,23.80
2022-12-11T01:18:10.638Z,21.25
2022-12-11T01:20:40.743Z,17.50
2022-12-11T01:23:09.343Z,16.17
2022-12-11T01:25:39.141Z,16.15
2022-12-11T01:28:07.600Z,19.42
2022-12-11T01:30:37.584Z,18.85
2022-12-11T01:33:05.732Z,16.65
2022-12-11T01:35:33.971Z,20.08
2022-12-11T01:38:02.869Z,17.40
2022-12-11T01:40:31.214Z,17.83
2022-12-11T01:42:59.288Z,19.15
2022-12-11T01:45:33.246Z,19.38
2022-12-11T01:48:10.563Z,17.25
2022-12-11T01:50:45.030Z,17.38
2022-12-11T01:53:17.905Z,16.73
2022-12-11T01:55:47.496Z,18.50
2022-12-11T01:58:17.307Z,18.83
2022-12-11T02:00:45.381Z,16.13
2022-12-11T02:03:15.002Z,17.05
2022-12-11T02:05:43.137Z,17.25
2022-12-11T02:08:11.486Z,15.48
2022-12-11T02:10:54.684Z,16.67
2022-12-11T02:13:29.474Z,16.38
2022-12-11T02:16:03.699Z,14.35
2022-12-11T02:18:40.107Z,14.57
2022-12-11T02:21:13.830Z,19.05
2022-12-11T02:24:09.320Z,15.50
2022-12-11T02:26:58.758Z,14.15
2022-12-11T02:29:36.059Z,15.38
2022-12-11T02:32:10.154Z,15.25
2022-12-11T02:34:42.773Z,17.40
2022-12-11T02:37:15.410Z,14.73
2022-12-11T02:39:46.255Z,14.80
2022-12-11T02:42:16.592Z,16.25
2022-12-11T02:44:48.254Z,16.50
2022-12-11T02:47:19.301Z,16.67
2022-12-11T02:49:51.271Z,12.83
2022-12-11T02:54:51.540Z,13.95
2022-12-11T02:57:25.234Z,14.07
2022-12-11T02:59:54.986Z,15.13
2022-12-11T03:02:23.101Z,14.25
2022-12-11T03:04:51.303Z,16.27
2022-12-11T03:07:25.446Z,15.05
2022-12-11T03:09:54.287Z,13.98
2022-12-11T03:12:25.074Z,14.63
2022-12-11T03:14:55.060Z,16.17
2022-12-11T03:17:26.191Z,17.58
2022-12-11T03:20:00.928Z,14.65
2022-12-11T03:22:38.945Z,17.92
2022-12-11T03:25:11.687Z,15.35
2022-12-11T03:27:46.128Z,17.60
2022-12-11T03:30:18.832Z,18.17
2022-12-11T03:32:51.303Z,17.30
2022-12-11T03:35:24.079Z,17.05
2022-12-11T03:37:53.137Z,19.27
2022-12-11T03:40:23.815Z,17.52
2022-12-11T03:42:53.750Z,18.40
2022-12-11T03:45:25.898Z,18.75
2022-12-11T03:47:56.413Z,16.92
2022-12-11T03:50:25.537Z,15.48
2022-12-11T03:52:54.900Z,16.52
2022-12-11T03:55:24.044Z,15.82
2022-12-11T03:57:52.137Z,17.27
2022-12-11T04:00:24.203Z,17.98
2022-12-11T04:03:12.669Z,18.95
2022-12-11T04:05:41.798Z,18.98
2022-12-11T04:08:09.946Z,19.65
2022-12-11T04:10:38.210Z,18.73
2022-12-11T04:13:06.263Z,18.33
2022-12-11T04:15:35.129Z,21.23
2022-12-11T04:18:20.702Z,18.75
2022-12-11T04:21:06.393Z,19.67
2022-12-11T04:23:51.623Z,18.05
2022-12-11T04:26:21.632Z,19.20
2022-12-11T04:28:50.449Z,19.33
2022-12-11T04:31:22.119Z,18.73
2022-12-11T04:33:50.452Z,21.02
2022-12-11T04:36:18.629Z,18.30
2022-12-11T04:38:46.652Z,19.95
2022-12-11T04:41:17.106Z,18.90
2022-12-11T04:43:46.152Z,19.40
2022-12-11T04:46:15.994Z,19.08
2022-12-11T04:48:46.048Z,17.85
2022-12-11T04:51:14.533Z,20.45
2022-12-11T04:53:42.797Z,18.10
2022-12-11T04:56:13.373Z,17.55
2022-12-11T04:58:42.854Z,19.08
2022-12-11T05:01:11.302Z,19.30
2022-12-11T05:03:39.582Z,19.77
2022-12-11T05:06:10.376Z,16.33
2022-12-11T05:08:40.459Z,19.85
2022-12-11T05:11:10.117Z,17.17
2022-12-11T05:13:38.751Z,19.40
2022-12-11T05:16:07.852Z,18.88
2022-12-11T05:18:36.175Z,19.95
2022-12-11T05:21:06.353Z,19.40
2022-12-11T05:23:36.105Z,18.98
2022-12-11T05:26:08.318Z,16.95
2022-12-11T05:28:38.535Z,17.83
2022-12-11T05:31:08.666Z,19.20
2022-12-11T05:33:36.813Z,22.45
2022-12-11T05:36:05.619Z,20.77
2022-12-11T05:38:35.111Z,22.25
2022-12-11T05:41:08.801Z,20.27
2022-12-11T05:43:37.968Z,19.15
2022-12-11T05:46:10.674Z,20.17
2022-12-11T05:48:39.824Z,21.55
2022-12-11T05:51:09.400Z,18.88
2022-12-11T05:53:39.661Z,22.05
2022-12-11T05:56:11.325Z,18.20
2022-12-11T05:58:41.359Z,22.55
2022-12-11T06:01:12.392Z,17.73
2022-12-11T06:03:40.653Z,20.43
2022-12-11T06:06:09.377Z,20.05
2022-12-11T06:08:38.933Z,19.70
2022-12-11T06:11:07.321Z,19.80
2022-12-11T06:13:35.850Z,22.52
2022-12-11T06:16:08.110Z,21.98
2022-12-11T06:18:37.865Z,22.35
2022-12-11T06:21:13.783Z,19.30
2022-12-11T06:23:44.049Z,19.30
2022-12-11T06:26:12.475Z,23.23
2022-12-11T06:28:40.661Z,23.15
2022-12-11T06:31:09.011Z,24.67
2022-12-11T06:33:38.044Z,23.65
2022-12-11T06:36:07.959Z,21.40
2022-12-11T06:38:36.408Z,20.10
2022-12-11T06:41:07.269Z,21.77
2022-12-11T06:43:36.821Z,21.75
2022-12-11T06:46:06.271Z,20.90
2022-12-11T06:48:34.516Z,19.88
2022-12-11T06:51:08.187Z,20.23
2022-12-11T06:53:37.105Z,20.65
2022-12-11T06:56:08.343Z,19.83
2022-12-11T06:58:37.290Z,16.13
2022-12-11T07:01:06.470Z,23.00
2022-12-11T07:03:34.535Z,20.08
2022-12-11T07:06:03.151Z,23.00
2022-12-11T07:08:32.037Z,20.30
2022-12-11T07:11:06.334Z,20.52
2022-12-11T07:13:35.612Z,21.15
2022-12-11T07:16:10.485Z,24.80
2022-12-11T07:18:39.442Z,20.77
2022-12-11T07:21:08.222Z,21.67
2022-12-11T07:23:37.551Z,20.58
2022-12-11T07:26:08.204Z,22.38
2022-12-11T07:28:36.603Z,20.92
2022-12-11T07:31:07.524Z,25.65
2022-12-11T07:33:35.652Z,26.45
2022-12-11T07:36:04.409Z,21.27
2022-12-11T07:38:32.746Z,20.42
2022-12-11T07:41:02.630Z,22.83
2022-12-11T07:43:32.242Z,21.80
2022-12-11T07:46:02.735Z,21.88
2022-12-11T07:48:31.815Z,23.42
2022-12-11T07:51:10.027Z,21.55
2022-12-11T07:53:38.080Z,21.02
2022-12-11T07:56:06.824Z,22.58
2022-12-11T07:58:36.949Z,22.42
2022-12-11T08:01:05.162Z,28.20
2022-12-11T08:03:33.252Z,32.15
2022-12-11T08:06:01.294Z,26.83
2022-12-11T08:08:29.404Z,33.45
2022-12-11T08:10:57.485Z,47.53
2022-12-11T08:13:25.500Z,34.20
2022-12-11T08:15:54.991Z,28.95
2022-12-11T08:18:23.059Z,24.25
2022-12-11T08:20:51.194Z,24.27
2022-12-11T08:23:19.217Z,25.52
2022-12-11T08:25:47.246Z,26.15
2022-12-11T08:28:15.306Z,26.52
2022-12-11T08:30:43.643Z,26.05
2022-12-11T08:33:13.633Z,26.15
2022-12-11T08:35:44.036Z,29.13
2022-12-11T08:38:12.447Z,30.48
2022-12-11T08:40:40.793Z,33.53
2022-12-11T08:43:09.092Z,22.90
2022-12-11T08:45:37.557Z,25.00
2022-12-11T08:48:06.548Z,22.13
2022-12-11T08:50:36.115Z,22.10
2022-12-11T08:53:04.389Z,19.83
2022-12-11T08:55:33.765Z,19.73
2022-12-11T08:58:01.825Z,19.65
2022-12-11T09:00:29.955Z,25.90
2022-12-11T09:02:58.081Z,22.20
2022-12-11T09:05:26.147Z,18.50
2022-12-11T09:07:55.731Z,19.80
2022-12-11T09:10:23.806Z,21.55
2022-12-11T09:12:51.862Z,48.72
2022-12-11T09:15:20.066Z,32.65
2022-12-11T09:17:48.086Z,21.88
2022-12-11T09:20:16.309Z,17.65
2022-12-11T09:22:44.405Z,18.23
2022-12-11T09:25:14.051Z,19.02
2022-12-11T09:27:42.094Z,38.88
2022-12-11T09:30:10.808Z,26.23
2022-12-11T09:32:39.864Z,20.17
2022-12-11T09:35:10.010Z,19.40
2022-12-11T09:37:38.395Z,18.83
2022-12-11T09:40:08.158Z,17.45
2022-12-11T09:42:50.782Z,20.08
2022-12-11T09:45:19.217Z,18.63
2022-12-11T09:47:51.233Z,17.88
2022-12-11T09:53:04.741Z,26.42
2022-12-11T09:55:40.166Z,26.25
2022-12-11T09:58:18.488Z,31.30
2022-12-11T10:00:49.620Z,34.30
2022-12-11T10:03:52.190Z,26.98
2022-12-11T10:06:27.017Z,25.10
2022-12-11T10:09:04.362Z,29.33
2022-12-11T10:11:54.454Z,47.20
2022-12-11T10:14:33.224Z,29.02
2022-12-11T10:17:05.812Z,36.22
2022-12-11T10:19:34.706Z,24.92
2022-12-11T10:22:03.561Z,23.88
2022-12-11T10:27:31.371Z,34.03
2022-12-11T10:30:09.621Z,21.50
2022-12-11T10:32:46.615Z,33.03
2022-12-11T10:35:21.839Z,28.27
2022-12-11T10:37:50.834Z,25.50
2022-12-11T10:40:22.264Z,20.58
2022-12-11T10:42:54.857Z,24.77
2022-12-11T10:45:25.013Z,24.27
2022-12-11T10:48:03.826Z,23.77
2022-12-11T10:50:32.232Z,21.10
2022-12-11T10:53:00.435Z,22.25
2022-12-11T10:55:31.989Z,20.25
2022-12-11T10:58:03.862Z,21.30
2022-12-11T11:03:04.359Z,19.10
2022-12-11T11:05:35.330Z,18.00
2022-12-11T11:08:16.239Z,19.15
2022-12-11T11:10:55.837Z,18.67
2022-12-11T11:13:25.247Z,16.38
2022-12-11T11:16:02.254Z,16.98
2022-12-11T11:18:32.160Z,12.98
2022-12-11T11:21:00.958Z,15.05
2022-12-11T11:23:30.137Z,13.13
2022-12-11T11:26:00.357Z,14.20
2022-12-11T11:28:31.632Z,14.45
2022-12-11T11:31:07.752Z,14.90
2022-12-11T11:33:37.999Z,13.45
2022-12-11T11:36:08.256Z,14.18
2022-12-11T11:38:39.830Z,12.52
2022-12-11T11:41:16.653Z,13.75
2022-12-11T11:43:46.973Z,11.30
2022-12-11T11:46:23.143Z,12.23
2022-12-11T11:49:00.261Z,11.35
2022-12-11T11:51:33.238Z,12.07
2022-12-11T11:54:05.191Z,11.45
2022-12-11T11:59:12.369Z,11.65
2022-12-11T12:01:42.739Z,11.65
2022-12-11T12:04:12.003Z,13.07
2022-12-11T12:06:58.616Z,10.90
2022-12-11T12:09:38.500Z,10.70
2022-12-11T12:12:22.764Z,11.48
2022-12-11T12:15:09.595Z,10.57
2022-12-11T12:17:55.402Z,9.52
2022-12-11T12:20:33.361Z,8.82
2022-12-11T12:23:36.459Z,9.25
2022-12-11T12:26:12.414Z,8.15
2022-12-11T12:28:49.052Z,13.27
2022-12-11T12:31:36.233Z,9.90
2022-12-11T12:34:15.504Z,8.45
2022-12-11T12:36:52.224Z,8.13
2022-12-11T12:39:33.122Z,7.32
2022-12-11T12:42:12.473Z,8.75
2022-12-11T12:44:50.229Z,21.50
2022-12-11T12:47:19.649Z,15.00
2022-12-11T12:49:51.049Z,27.80
2022-12-11T12:52:21.975Z,21.33
2022-12-11T12:55:12.962Z,23.33
2022-12-11T12:57:44.822Z,18.13
2022-12-11T13:00:13.761Z,23.13
2022-12-11T13:02:50.489Z,12.23
2022-12-11T13:05:24.676Z,15.73
2022-12-11T13:07:56.537Z,13.38
2022-12-11T13:12:54.694Z,13.73
2022-12-11T13:15:40.572Z,15.35
2022-12-11T13:18:35.141Z,17.77
2022-12-11T13:21:25.999Z,28.13
2022-12-11T13:23:54.558Z,11.55
2022-12-11T13:26:30.665Z,10.40
2022-12-11T13:28:59.197Z,9.07
2022-12-11T13:31:36.599Z,13.15
2022-12-11T13:34:17.100Z,17.98
2022-12-11T13:36:50.966Z,15.70
2022-12-11T13:39:21.930Z,11.65
2022-12-11T13:41:53.846Z,11.50
2022-12-11T13:46:54.425Z,10.93
2022-12-11T13:49:25.597Z,12.43
2022-12-11T13:51:57.662Z,13.43
2022-12-11T13:54:26.837Z,12.43
2022-12-11T13:56:57.194Z,14.25
2022-12-11T13:59:30.058Z,12.27
2022-12-11T14:02:05.351Z,37.17
2022-12-11T14:04:35.795Z,55.88
2022-12-11T14:07:08.841Z,19.60
2022-12-11T14:09:41.409Z,30.35
2022-12-11T14:12:17.319Z,46.80
2022-12-11T14:14:49.790Z,151.23
2022-12-11T14:17:25.109Z,108.85
2022-12-11T14:19:54.504Z,34.53
2022-12-11T14:22:26.570Z,23.60
2022-12-11T14:24:57.206Z,20.52
2022-12-11T14:27:26.326Z,19.10
2022-12-11T14:29:55.132Z,16.48
2022-12-11T14:32:31.874Z,16.15
2022-12-11T14:35:01.374Z,17.77
2022-12-11T14:37:31.059Z,13.35
2022-12-11T14:40:02.728Z,16.92
2022-12-11T14:42:33.525Z,15.60
2022-12-11T14:45:07.102Z,17.55
2022-12-11T14:47:40.091Z,17.20
2022-12-11T14:50:11.089Z,13.38
2022-12-11T14:52:45.217Z,15.47
2022-12-11T14:55:19.090Z,13.45
2022-12-11T14:57:49.710Z,14.73
2022-12-11T15:00:26.085Z,12.77
2022-12-11T15:03:02.827Z,9.82
2022-12-11T15:05:37.112Z,11.77
2022-12-11T15:08:25.020Z,19.05
2022-12-11T15:11:05.945Z,11.75
2022-12-11T15:13:35.820Z,12.35
2022-12-11T15:16:04.921Z,14.10
2022-12-11T15:18:37.334Z,24.85
2022-12-11T15:21:09.449Z,38.30
2022-12-11T15:23:51.919Z,35.30
2022-12-11T15:26:20.620Z,28.02
2022-12-11T15:28:48.710Z,15.25
2022-12-11T15:31:26.439Z,15.13
2022-12-11T15:33:54.962Z,11.15
2022-12-11T15:36:27.781Z,13.05
2022-12-11T15:38:57.302Z,12.30
2022-12-11T15:41:26.499Z,9.77
2022-12-11T15:43:58.908Z,10.25
2022-12-11T15:46:27.619Z,11.52
2022-12-11T15:48:57.441Z,10.98
2022-12-11T15:51:27.442Z,12.80
2022-12-11T15:53:56.986Z,13.70
2022-12-11T15:56:27.947Z,13.75
2022-12-11T15:59:06.764Z,11.80
2022-12-11T16:01:35.158Z,12.65
2022-12-11T16:04:05.320Z,15.25
2022-12-11T16:06:34.197Z,16.48
2022-12-11T16:09:05.147Z,14.10
2022-12-11T16:11:33.358Z,12.80
2022-12-11T16:14:04.281Z,10.93
2022-12-11T16:16:33.045Z,10.67
2022-12-11T16:19:01.167Z,11.73
2022-12-11T16:21:29.403Z,11.38
2022-12-11T16:23:57.468Z,23.30
2022-12-11T16:26:27.214Z,20.83
2022-12-11T16:28:55.307Z,24.35
2022-12-11T16:31:23.389Z,31.48
2022-12-11T16:33:51.481Z,35.85
2022-12-11T16:36:20.542Z,23.30
2022-12-11T16:38:53.492Z,20.73
2022-12-11T16:41:22.810Z,24.58
2022-12-11T16:43:52.925Z,32.58
2022-12-11T16:46:22.122Z,27.52
2022-12-11T16:48:50.661Z,19.50
2022-12-11T16:51:19.056Z,15.88
2022-12-11T16:53:47.393Z,13.43
2022-12-11T16:56:15.432Z,14.93
2022-12-11T16:58:43.475Z,13.63
2022-12-11T17:01:13.940Z,14.77
2022-12-11T17:03:43.302Z,12.77
2022-12-11T17:06:13.223Z,14.25
2022-12-11T17:08:42.737Z,15.07
2022-12-11T17:11:13.979Z,12.88
2022-12-11T17:13:42.327Z,13.75
2022-12-11T17:16:18.136Z,14.02
2022-12-11T17:18:46.277Z,13.00
2022-12-11T17:21:17.173Z,14.85
2022-12-11T17:23:45.426Z,13.55
2022-12-11T17:26:13.585Z,12.50
2022-12-11T17:28:41.721Z,16.25
2022-12-11T17:31:16.560Z,12.80
2022-12-11T17:33:44.961Z,14.18
2022-12-11T17:36:15.319Z,14.35
2022-12-11T17:38:43.398Z,15.55
2022-12-11T17:41:18.507Z,21.52
2022-12-11T17:43:48.996Z,14.30
2022-12-11T17:46:19.239Z,16.63
2022-12-11T17:48:48.634Z,17.98
2022-12-11T17:51:21.902Z,16.50
2022-12-11T17:53:50.399Z,20.40
2022-12-11T17:56:18.847Z,15.20
2022-12-11T17:58:46.905Z,15.82
2022-12-11T18:01:15.104Z,18.75
2022-12-11T18:03:44.773Z,17.85
2022-12-11T18:06:15.151Z,16.45
2022-12-11T18:08:44.393Z,14.50
2022-12-11T18:11:14.986Z,17.38
2022-12-11T18:13:43.658Z,16.67
2022-12-11T18:16:14.374Z,17.08
2022-12-11T18:18:44.199Z,15.05
2022-12-11T18:21:15.076Z,19.67
2022-12-11T18:23:43.983Z,16.10
2022-12-11T18:26:14.400Z,15.18
2022-12-11T18:28:42.594Z,16.67
2022-12-11T18:31:11.636Z,19.42
2022-12-11T18:33:41.887Z,16.27
2022-12-11T18:36:13.343Z,18.48
2022-12-11T18:38:43.110Z,17.98
2022-12-11T18:41:13.088Z,15.30
2022-12-11T18:43:41.700Z,13.63
2022-12-11T18:46:12.571Z,16.00
2022-12-11T18:48:40.807Z,14.18
2022-12-11T18:51:10.118Z,11.52
2022-12-11T18:53:41.419Z,11.43
2022-12-11T18:56:12.589Z,14.05
2022-12-11T18:58:41.083Z,13.60
2022-12-11T19:01:10.434Z,13.93
2022-12-11T19:03:38.829Z,13.27
2022-12-11T19:06:09.079Z,29.55
2022-12-11T19:08:37.293Z,36.78
2022-12-11T19:11:07.244Z,22.27
2022-12-11T19:13:36.250Z,17.70
2022-12-11T19:16:04.720Z,13.60
2022-12-11T19:18:32.807Z,35.33
2022-12-11T19:21:08.410Z,17.80
2022-12-11T19:23:37.530Z,13.48
2022-12-11T19:26:11.514Z,12.82
2022-12-11T19:28:40.016Z,14.68
2022-12-11T19:31:11.290Z,14.40
2022-12-11T19:33:39.813Z,18.92
2022-12-11T19:36:10.382Z,31.20
2022-12-11T19:38:38.480Z,21.70
2022-12-11T19:41:09.330Z,17.38
2022-12-11T19:43:37.812Z,15.13
2022-12-11T19:46:07.982Z,16.90
2022-12-11T19:48:37.487Z,16.67
2022-12-11T19:51:06.620Z,17.20
2022-12-11T19:53:35.245Z,16.15
2022-12-11T19:56:04.027Z,20.38
2022-12-11T19:58:33.980Z,17.58
2022-12-11T20:01:02.802Z,19.65
2022-12-11T20:03:31.683Z,20.40
2022-12-11T20:06:04.253Z,20.60
2022-12-11T20:08:47.941Z,18.95
2022-12-11T20:11:19.628Z,20.55
2022-12-11T20:13:49.791Z,22.23
2022-12-11T20:16:28.860Z,19.88
2022-12-11T20:19:08.328Z,21.95
2022-12-11T20:21:36.421Z,22.85
2022-12-11T20:24:04.771Z,20.65
2022-12-11T20:26:35.980Z,19.65
2022-12-11T20:29:07.317Z,20.42
2022-12-11T20:31:36.540Z,21.38
2022-12-11T20:34:05.824Z,22.00
2022-12-11T20:36:33.929Z,20.80
2022-12-11T20:39:02.049Z,24.13
2022-12-11T20:41:30.168Z,21.42
2022-12-11T20:43:58.302Z,25.70
2022-12-11T20:46:28.889Z,25.75
2022-12-11T20:48:58.755Z,23.45
2022-12-11T20:51:27.998Z,28.10
2022-12-11T20:53:59.273Z,25.38
2022-12-11T20:56:29.864Z,28.80
2022-12-11T20:58:59.063Z,25.85
2022-12-11T21:01:31.842Z,25.23
2022-12-11T21:04:00.717Z,29.00
2022-12-11T21:06:31.623Z,27.55
2022-12-11T21:09:00.983Z,30.27
2022-12-11T21:11:29.305Z,27.42
2022-12-11T21:13:57.673Z,30.88
2022-12-11T21:16:26.173Z,32.03
2022-12-11T21:18:56.192Z,28.17
2022-12-11T21:21:24.852Z,27.88
2022-12-11T21:23:53.164Z,27.92
2022-12-11T21:26:21.775Z,30.42
2022-12-11T21:28:50.009Z,28.20
2022-12-11T21:31:20.463Z,31.40
2022-12-11T21:33:49.330Z,27.27
2022-12-11T21:36:19.265Z,32.25
2022-12-11T21:38:47.615Z,31.13
2022-12-11T21:41:18.025Z,31.67
2022-12-11T21:44:40.889Z,30.08
2022-12-11T21:46:35.630Z,31.15
2022-12-11T21:49:03.801Z,31.45
2022-12-11T21:51:38.553Z,29.88
2022-12-11T21:54:10.221Z,31.45
2022-12-11T21:56:38.314Z,28.58
2022-12-11T21:59:06.621Z,30.88
2022-12-11T22:01:38.364Z,30.83
2022-12-11T22:04:06.911Z,31.73
2022-12-11T22:06:36.670Z,30.77
2022-12-11T22:09:05.430Z,30.10
2022-12-11T22:11:34.710Z,30.60
2022-12-11T22:14:03.161Z,29.13
2022-12-11T22:16:31.869Z,31.02
2022-12-11T22:18:59.965Z,31.77
2022-12-11T22:21:28.054Z,30.83
2022-12-11T22:23:57.575Z,29.10
2022-12-11T22:26:27.706Z,29.50
2022-12-11T22:28:56.818Z,28.90
2022-12-11T22:31:27.865Z,27.75
2022-12-11T22:33:56.488Z,28.40
2022-12-11T22:36:25.868Z,34.53
2022-12-11T22:38:54.315Z,28.65
2022-12-11T22:41:26.246Z,30.60
2022-12-11T22:46:24.071Z,26.05
2022-12-11T22:48:53.075Z,31.67
2022-12-11T22:51:21.672Z,31.08
2022-12-11T22:53:49.919Z,32.97
2022-12-11T22:56:18.191Z,34.55
2022-12-11T22:58:47.597Z,32.42
2022-12-11T23:01:17.702Z,32.65
2022-12-11T23:03:45.868Z,30.73
2022-12-11T23:06:16.214Z,33.50
2022-12-11T23:08:44.779Z,33.80
2022-12-11T23:11:15.930Z,35.33
2022-12-11T23:13:44.606Z,36.50
2022-12-11T23:16:14.632Z,31.23
2022-12-11T23:18:43.156Z,32.10
2022-12-11T23:21:11.788Z,34.22
2022-12-11T23:23:40.144Z,33.58
2022-12-11T23:26:09.729Z,34.40
2022-12-11T23:28:38.089Z,34.30
2022-12-11T23:31:06.783Z,32.97
2022-12-11T23:33:36.213Z,34.70
2022-12-11T23:36:05.411Z,38.78
2022-12-11T23:38:33.981Z,37.67
2022-12-11T23:41:03.831Z,37.50
2022-12-11T23:43:31.954Z,40.33
2022-12-11T23:46:00.101Z,37.03
2022-12-11T23:48:31.136Z,35.13
2022-12-11T23:51:02.088Z,35.97
2022-12-11T23:53:30.317Z,36.67
2022-12-11T23:56:03.010Z,39.22
2022-12-11T23:58:31.172Z,36.17
